sensor_id;sensor_type;location;lat;lon;timestamp;P1;durP1;ratioP1;P2;durP2;ratioP2
67816;SDS011;54614;47.576;7.524;2022-09-30T00:00:28;2.83;;;1.90;;
67816;SDS011;54614;47.576;7.524;2022-09-30T00:02:54;2.10;;;1.80;;
67816;SDS011;54614;47.576;7.524;2022-09-30T00:05:20;3.10;;;1.80;;
67816;SDS011;54614;47.576;7.524;2022-09-30T00:07:45;3.00;;;1.80;;
67816;SDS011;54614;47.576;7.524;2022-09-30T00:10:11;2.43;;;1.73;;
67816;SDS011;54614;47.576;7.524;2022-09-30T00:12:39;5.37;;;1.80;;
67816;SDS011;54614;47.576;7.524;2022-09-30T00:15:05;2.33;;;1.80;;
67816;SDS011;54614;47.576;7.524;2022-09-30T00:17:32;3.83;;;1.87;;
67816;SDS011;54614;47.576;7.524;2022-09-30T00:19:58;1.90;;;1.70;;
67816;SDS011;54614;47.576;7.524;2022-09-30T00:22:23;1.60;;;1.50;;
67816;SDS011;54614;47.576;7.524;2022-09-30T00:24:49;2.20;;;1.70;;
67816;SDS011;54614;47.576;7.524;2022-09-30T00:27:15;2.03;;;1.70;;
67816;SDS011;54614;47.576;7.524;2022-09-30T00:29:42;2.10;;;1.90;;
67816;SDS011;54614;47.576;7.524;2022-09-30T00:32:09;1.87;;;1.77;;
67816;SDS011;54614;47.576;7.524;2022-09-30T00:34:35;1.97;;;1.60;;
67816;SDS011;54614;47.576;7.524;2022-09-30T00:37:01;2.00;;;1.77;;
67816;SDS011;54614;47.576;7.524;2022-09-30T00:39:28;2.07;;;1.80;;
67816;SDS011;54614;47.576;7.524;2022-09-30T00:41:55;1.80;;;1.70;;
67816;SDS011;54614;47.576;7.524;2022-09-30T00:50:31;2.00;;;1.87;;
67816;SDS011;54614;47.576;7.524;2022-09-30T00:56:09;1.90;;;1.70;;
67816;SDS011;54614;47.576;7.524;2022-09-30T00:58:55;2.10;;;1.90;;
67816;SDS011;54614;47.576;7.524;2022-09-30T01:01:27;1.87;;;1.70;;
67816;SDS011;54614;47.576;7.524;2022-09-30T01:04:02;2.43;;;1.70;;
67816;SDS011;54614;47.576;7.524;2022-09-30T01:06:35;1.80;;;1.70;;
67816;SDS011;54614;47.576;7.524;2022-09-30T01:09:02;1.77;;;1.67;;
67816;SDS011;54614;47.576;7.524;2022-09-30T01:11:28;2.10;;;1.90;;
67816;SDS011;54614;47.576;7.524;2022-09-30T01:13:56;4.03;;;1.70;;
67816;SDS011;54614;47.576;7.524;2022-09-30T01:17:29;2.10;;;1.83;;
67816;SDS011;54614;47.576;7.524;2022-09-30T01:25:24;2.07;;;1.53;;
67816;SDS011;54614;47.576;7.524;2022-09-30T01:37:43;2.13;;;1.70;;
67816;SDS011;54614;47.576;7.524;2022-09-30T01:40:42;2.70;;;1.70;;
67816;SDS011;54614;47.576;7.524;2022-09-30T01:43:13;1.60;;;1.50;;
67816;SDS011;54614;47.576;7.524;2022-09-30T01:46:04;3.77;;;1.70;;
67816;SDS011;54614;47.576;7.524;2022-09-30T01:48:59;3.23;;;1.80;;
67816;SDS011;54614;47.576;7.524;2022-09-30T01:51:50;1.60;;;1.50;;
67816;SDS011;54614;47.576;7.524;2022-09-30T02:00:25;1.60;;;1.50;;
67816;SDS011;54614;47.576;7.524;2022-09-30T02:02:57;1.50;;;1.40;;
67816;SDS011;54614;47.576;7.524;2022-09-30T02:05:55;1.60;;;1.50;;
67816;SDS011;54614;47.576;7.524;2022-09-30T02:08:41;1.57;;;1.50;;
67816;SDS011;54614;47.576;7.524;2022-09-30T02:11:19;2.07;;;1.50;;
67816;SDS011;54614;47.576;7.524;2022-09-30T02:14:08;1.50;;;1.40;;
67816;SDS011;54614;47.576;7.524;2022-09-30T02:17:02;1.60;;;1.40;;
67816;SDS011;54614;47.576;7.524;2022-09-30T02:19:42;1.63;;;1.50;;
67816;SDS011;54614;47.576;7.524;2022-09-30T02:22:19;2.50;;;1.50;;
67816;SDS011;54614;47.576;7.524;2022-09-30T02:24:54;2.03;;;1.60;;
67816;SDS011;54614;47.576;7.524;2022-09-30T02:27:32;1.60;;;1.50;;
67816;SDS011;54614;47.576;7.524;2022-09-30T02:30:12;1.50;;;1.40;;
67816;SDS011;54614;47.576;7.524;2022-09-30T02:32:41;1.73;;;1.53;;
67816;SDS011;54614;47.576;7.524;2022-09-30T02:35:19;2.57;;;1.70;;
67816;SDS011;54614;47.576;7.524;2022-09-30T02:38:16;4.00;;;1.70;;
67816;SDS011;54614;47.576;7.524;2022-09-30T02:43:26;1.70;;;1.60;;
67816;SDS011;54614;47.576;7.524;2022-09-30T02:57:18;2.10;;;1.60;;
67816;SDS011;54614;47.576;7.524;2022-09-30T03:00:11;2.17;;;1.70;;
67816;SDS011;54614;47.576;7.524;2022-09-30T03:02:38;3.97;;;1.50;;
67816;SDS011;54614;47.576;7.524;2022-09-30T03:05:05;1.80;;;1.70;;
67816;SDS011;54614;47.576;7.524;2022-09-30T03:07:33;2.50;;;1.60;;
67816;SDS011;54614;47.576;7.524;2022-09-30T03:10:00;2.03;;;1.53;;
67816;SDS011;54614;47.576;7.524;2022-09-30T03:12:40;1.50;;;1.40;;
67816;SDS011;54614;47.576;7.524;2022-09-30T03:29:44;1.73;;;1.63;;
67816;SDS011;54614;47.576;7.524;2022-09-30T03:33:02;1.73;;;1.47;;
67816;SDS011;54614;47.576;7.524;2022-09-30T03:44:11;4.33;;;1.60;;
67816;SDS011;54614;47.576;7.524;2022-09-30T03:49:17;1.53;;;1.40;;
67816;SDS011;54614;47.576;7.524;2022-09-30T03:51:51;1.50;;;1.40;;
67816;SDS011;54614;47.576;7.524;2022-09-30T03:54:20;1.33;;;1.27;;
67816;SDS011;54614;47.576;7.524;2022-09-30T03:56:47;1.30;;;1.30;;
67816;SDS011;54614;47.576;7.524;2022-09-30T03:59:18;1.50;;;1.40;;
67816;SDS011;54614;47.576;7.524;2022-09-30T04:01:52;1.60;;;1.50;;
67816;SDS011;54614;47.576;7.524;2022-09-30T04:04:20;1.90;;;1.43;;
67816;SDS011;54614;47.576;7.524;2022-09-30T04:06:47;1.53;;;1.43;;
67816;SDS011;54614;47.576;7.524;2022-09-30T04:09:13;1.67;;;1.57;;
67816;SDS011;54614;47.576;7.524;2022-09-30T04:11:39;1.50;;;1.40;;
67816;SDS011;54614;47.576;7.524;2022-09-30T04:14:05;1.63;;;1.53;;
67816;SDS011;54614;47.576;7.524;2022-09-30T04:16:31;2.53;;;1.60;;
67816;SDS011;54614;47.576;7.524;2022-09-30T04:18:57;2.40;;;1.60;;
67816;SDS011;54614;47.576;7.524;2022-09-30T04:21:24;1.80;;;1.70;;
67816;SDS011;54614;47.576;7.524;2022-09-30T04:23:53;1.70;;;1.60;;
67816;SDS011;54614;47.576;7.524;2022-09-30T04:26:20;2.00;;;1.57;;
67816;SDS011;54614;47.576;7.524;2022-09-30T04:28:47;1.80;;;1.70;;
67816;SDS011;54614;47.576;7.524;2022-09-30T04:31:13;1.63;;;1.53;;
67816;SDS011;54614;47.576;7.524;2022-09-30T04:33:41;1.67;;;1.50;;
67816;SDS011;54614;47.576;7.524;2022-09-30T04:36:09;1.73;;;1.60;;
67816;SDS011;54614;47.576;7.524;2022-09-30T04:38:35;1.60;;;1.50;;
67816;SDS011;54614;47.576;7.524;2022-09-30T04:41:02;1.63;;;1.53;;
67816;SDS011;54614;47.576;7.524;2022-09-30T04:43:30;1.67;;;1.57;;
67816;SDS011;54614;47.576;7.524;2022-09-30T04:45:58;1.50;;;1.40;;
67816;SDS011;54614;47.576;7.524;2022-09-30T04:48:24;1.60;;;1.50;;
67816;SDS011;54614;47.576;7.524;2022-09-30T04:50:52;1.90;;;1.70;;
67816;SDS011;54614;47.576;7.524;2022-09-30T04:53:18;1.70;;;1.60;;
67816;SDS011;54614;47.576;7.524;2022-09-30T04:55:44;1.63;;;1.53;;
67816;SDS011;54614;47.576;7.524;2022-09-30T04:58:11;2.50;;;1.70;;
67816;SDS011;54614;47.576;7.524;2022-09-30T05:00:37;1.73;;;1.63;;
67816;SDS011;54614;47.576;7.524;2022-09-30T05:03:03;4.03;;;1.87;;
67816;SDS011;54614;47.576;7.524;2022-09-30T05:05:29;3.10;;;1.50;;
67816;SDS011;54614;47.576;7.524;2022-09-30T05:08:03;18.67;;;2.50;;
67816;SDS011;54614;47.576;7.524;2022-09-30T05:10:30;5.53;;;2.03;;
67816;SDS011;54614;47.576;7.524;2022-09-30T05:12:56;7.27;;;1.87;;
67816;SDS011;54614;47.576;7.524;2022-09-30T05:15:22;6.90;;;1.70;;
67816;SDS011;54614;47.576;7.524;2022-09-30T05:17:49;11.77;;;2.43;;
67816;SDS011;54614;47.576;7.524;2022-09-30T05:20:16;6.43;;;2.00;;
67816;SDS011;54614;47.576;7.524;2022-09-30T05:22:42;6.37;;;2.00;;
67816;SDS011;54614;47.576;7.524;2022-09-30T05:25:11;9.03;;;1.90;;
67816;SDS011;54614;47.576;7.524;2022-09-30T05:27:37;17.03;;;2.03;;
67816;SDS011;54614;47.576;7.524;2022-09-30T05:30:03;13.77;;;3.00;;
67816;SDS011;54614;47.576;7.524;2022-09-30T05:32:30;14.90;;;2.20;;
67816;SDS011;54614;47.576;7.524;2022-09-30T05:34:56;6.53;;;2.23;;
67816;SDS011;54614;47.576;7.524;2022-09-30T05:37:22;5.13;;;1.83;;
67816;SDS011;54614;47.576;7.524;2022-09-30T05:39:48;5.17;;;1.90;;
67816;SDS011;54614;47.576;7.524;2022-09-30T05:42:14;13.90;;;2.33;;
67816;SDS011;54614;47.576;7.524;2022-09-30T05:44:40;17.00;;;2.23;;
67816;SDS011;54614;47.576;7.524;2022-09-30T05:47:05;10.70;;;1.93;;
67816;SDS011;54614;47.576;7.524;2022-09-30T05:49:31;6.73;;;2.07;;
67816;SDS011;54614;47.576;7.524;2022-09-30T05:51:58;7.33;;;2.30;;
67816;SDS011;54614;47.576;7.524;2022-09-30T05:54:25;5.67;;;1.90;;
67816;SDS011;54614;47.576;7.524;2022-09-30T05:56:51;9.70;;;2.50;;
67816;SDS011;54614;47.576;7.524;2022-09-30T05:59:17;5.43;;;1.90;;
67816;SDS011;54614;47.576;7.524;2022-09-30T06:01:43;7.90;;;2.00;;
67816;SDS011;54614;47.576;7.524;2022-09-30T06:04:10;5.07;;;2.13;;
67816;SDS011;54614;47.576;7.524;2022-09-30T06:06:36;3.03;;;1.90;;
67816;SDS011;54614;47.576;7.524;2022-09-30T06:09:03;2.73;;;2.00;;
67816;SDS011;54614;47.576;7.524;2022-09-30T06:11:28;3.87;;;2.17;;
67816;SDS011;54614;47.576;7.524;2022-09-30T06:13:56;2.23;;;1.90;;
67816;SDS011;54614;47.576;7.524;2022-09-30T06:16:22;3.43;;;1.67;;
67816;SDS011;54614;47.576;7.524;2022-09-30T06:18:48;3.05;;;1.90;;
67816;SDS011;54614;47.576;7.524;2022-09-30T06:21:14;4.60;;;1.90;;
67816;SDS011;54614;47.576;7.524;2022-09-30T06:23:42;4.30;;;2.10;;
67816;SDS011;54614;47.576;7.524;2022-09-30T06:26:09;6.53;;;1.90;;
67816;SDS011;54614;47.576;7.524;2022-09-30T06:28:37;4.57;;;1.70;;
67816;SDS011;54614;47.576;7.524;2022-09-30T06:31:03;3.85;;;1.58;;
67816;SDS011;54614;47.576;7.524;2022-09-30T06:33:31;4.37;;;1.80;;
67816;SDS011;54614;47.576;7.524;2022-09-30T06:35:57;3.15;;;1.60;;
67816;SDS011;54614;47.576;7.524;2022-09-30T06:38:28;6.83;;;1.77;;
67816;SDS011;54614;47.576;7.524;2022-09-30T06:40:57;5.00;;;1.60;;
67816;SDS011;54614;47.576;7.524;2022-09-30T06:43:25;1.70;;;1.60;;
67816;SDS011;54614;47.576;7.524;2022-09-30T06:45:52;2.05;;;1.48;;
67816;SDS011;54614;47.576;7.524;2022-09-30T06:48:17;1.80;;;1.65;;
67816;SDS011;54614;47.576;7.524;2022-09-30T06:50:44;1.98;;;1.60;;
67816;SDS011;54614;47.576;7.524;2022-09-30T06:53:10;2.13;;;1.65;;
67816;SDS011;54614;47.576;7.524;2022-09-30T06:55:38;2.72;;;1.58;;
67816;SDS011;54614;47.576;7.524;2022-09-30T06:58:12;2.20;;;1.50;;
67816;SDS011;54614;47.576;7.524;2022-09-30T07:00:40;2.75;;;1.60;;
67816;SDS011;54614;47.576;7.524;2022-09-30T07:03:07;4.85;;;1.80;;
67816;SDS011;54614;47.576;7.524;2022-09-30T07:06:00;3.58;;;1.60;;
67816;SDS011;54614;47.576;7.524;2022-09-30T07:08:29;2.17;;;1.40;;
67816;SDS011;54614;47.576;7.524;2022-09-30T07:10:58;1.77;;;1.60;;
67816;SDS011;54614;47.576;7.524;2022-09-30T07:13:31;5.10;;;1.40;;
67816;SDS011;54614;47.576;7.524;2022-09-30T07:15:57;2.78;;;1.30;;
67816;SDS011;54614;47.576;7.524;2022-09-30T07:18:23;3.20;;;1.35;;
67816;SDS011;54614;47.576;7.524;2022-09-30T07:20:51;1.75;;;1.52;;
67816;SDS011;54614;47.576;7.524;2022-09-30T07:23:19;3.13;;;1.77;;
67816;SDS011;54614;47.576;7.524;2022-09-30T07:25:50;2.45;;;1.60;;
67816;SDS011;54614;47.576;7.524;2022-09-30T07:28:20;1.73;;;1.40;;
67816;SDS011;54614;47.576;7.524;2022-09-30T07:30:54;3.10;;;1.50;;
67816;SDS011;54614;47.576;7.524;2022-09-30T07:33:21;2.10;;;1.50;;
67816;SDS011;54614;47.576;7.524;2022-09-30T07:35:51;1.60;;;1.50;;
67816;SDS011;54614;47.576;7.524;2022-09-30T07:38:20;1.55;;;1.45;;
67816;SDS011;54614;47.576;7.524;2022-09-30T07:40:59;3.17;;;1.40;;
67816;SDS011;54614;47.576;7.524;2022-09-30T07:43:30;2.78;;;1.60;;
67816;SDS011;54614;47.576;7.524;2022-09-30T07:46:12;5.47;;;2.10;;
67816;SDS011;54614;47.576;7.524;2022-09-30T07:48:42;1.60;;;1.50;;
67816;SDS011;54614;47.576;7.524;2022-09-30T07:53:55;2.25;;;1.40;;
67816;SDS011;54614;47.576;7.524;2022-09-30T07:56:24;1.50;;;1.40;;
67816;SDS011;54614;47.576;7.524;2022-09-30T07:58:56;3.65;;;1.80;;
67816;SDS011;54614;47.576;7.524;2022-09-30T08:01:25;1.55;;;1.45;;
67816;SDS011;54614;47.576;7.524;2022-09-30T08:03:57;3.70;;;1.80;;
67816;SDS011;54614;47.576;7.524;2022-09-30T08:06:27;4.50;;;1.60;;
67816;SDS011;54614;47.576;7.524;2022-09-30T08:08:56;3.20;;;1.67;;
67816;SDS011;54614;47.576;7.524;2022-09-30T08:11:23;1.73;;;1.60;;
67816;SDS011;54614;47.576;7.524;2022-09-30T08:13:54;2.15;;;1.58;;
67816;SDS011;54614;47.576;7.524;2022-09-30T08:16:21;1.98;;;1.50;;
67816;SDS011;54614;47.576;7.524;2022-09-30T08:18:53;3.27;;;1.50;;
67816;SDS011;54614;47.576;7.524;2022-09-30T08:21:24;1.55;;;1.40;;
67816;SDS011;54614;47.576;7.524;2022-09-30T08:23:51;1.50;;;1.40;;
67816;SDS011;54614;47.576;7.524;2022-09-30T08:26:17;1.50;;;1.40;;
67816;SDS011;54614;47.576;7.524;2022-09-30T08:28:43;1.67;;;1.50;;
67816;SDS011;54614;47.576;7.524;2022-09-30T08:31:18;1.40;;;1.30;;
67816;SDS011;54614;47.576;7.524;2022-09-30T08:33:48;2.00;;;1.40;;
67816;SDS011;54614;47.576;7.524;2022-09-30T08:36:16;1.40;;;1.30;;
67816;SDS011;54614;47.576;7.524;2022-09-30T08:38:48;1.42;;;1.33;;
67816;SDS011;54614;47.576;7.524;2022-09-30T08:53:06;2.23;;;1.70;;
67816;SDS011;54614;47.576;7.524;2022-09-30T08:55:41;1.98;;;1.30;;
67816;SDS011;54614;47.576;7.524;2022-09-30T08:58:14;1.40;;;1.30;;
67816;SDS011;54614;47.576;7.524;2022-09-30T09:00:55;1.40;;;1.30;;
67816;SDS011;54614;47.576;7.524;2022-09-30T09:03:30;1.43;;;1.33;;
67816;SDS011;54614;47.576;7.524;2022-09-30T09:06:05;1.53;;;1.40;;
67816;SDS011;54614;47.576;7.524;2022-09-30T09:20:37;1.83;;;1.50;;
67816;SDS011;54614;47.576;7.524;2022-09-30T09:23:11;2.43;;;1.50;;
67816;SDS011;54614;47.576;7.524;2022-09-30T09:25:38;1.50;;;1.40;;
67816;SDS011;54614;47.576;7.524;2022-09-30T09:28:05;1.30;;;1.20;;
67816;SDS011;54614;47.576;7.524;2022-09-30T09:30:59;1.50;;;1.40;;
67816;SDS011;54614;47.576;7.524;2022-09-30T09:33:28;1.43;;;1.33;;
67816;SDS011;54614;47.576;7.524;2022-09-30T09:36:11;1.50;;;1.40;;
67816;SDS011;54614;47.576;7.524;2022-09-30T09:47:20;2.10;;;1.40;;
67816;SDS011;54614;47.576;7.524;2022-09-30T09:49:50;1.40;;;1.30;;
67816;SDS011;54614;47.576;7.524;2022-09-30T09:55:25;1.40;;;1.30;;
67816;SDS011;54614;47.576;7.524;2022-09-30T09:58:10;1.83;;;1.57;;
67816;SDS011;54614;47.576;7.524;2022-09-30T10:00:40;1.70;;;1.50;;
67816;SDS011;54614;47.576;7.524;2022-09-30T10:06:03;1.30;;;1.30;;
67816;SDS011;54614;47.576;7.524;2022-09-30T10:08:35;1.40;;;1.30;;
67816;SDS011;54614;47.576;7.524;2022-09-30T10:11:05;3.08;;;1.50;;
67816;SDS011;54614;47.576;7.524;2022-09-30T10:13:44;2.03;;;1.30;;
67816;SDS011;54614;47.576;7.524;2022-09-30T10:16:32;1.30;;;1.30;;
67816;SDS011;54614;47.576;7.524;2022-09-30T10:19:02;1.47;;;1.37;;
67816;SDS011;54614;47.576;7.524;2022-09-30T10:21:44;1.47;;;1.37;;
67816;SDS011;54614;47.576;7.524;2022-09-30T10:24:18;2.10;;;1.40;;
67816;SDS011;54614;47.576;7.524;2022-09-30T10:26:50;1.40;;;1.30;;
67816;SDS011;54614;47.576;7.524;2022-09-30T10:29:24;1.57;;;1.47;;
67816;SDS011;54614;47.576;7.524;2022-09-30T10:31:55;1.47;;;1.37;;
67816;SDS011;54614;47.576;7.524;2022-09-30T10:36:58;1.43;;;1.37;;
67816;SDS011;54614;47.576;7.524;2022-09-30T10:39:35;1.30;;;1.30;;
67816;SDS011;54614;47.576;7.524;2022-09-30T10:44:45;1.90;;;1.30;;
67816;SDS011;54614;47.576;7.524;2022-09-30T10:47:30;1.50;;;1.40;;
67816;SDS011;54614;47.576;7.524;2022-09-30T10:50:07;1.30;;;1.30;;
67816;SDS011;54614;47.576;7.524;2022-09-30T10:55:50;3.00;;;1.30;;
67816;SDS011;54614;47.576;7.524;2022-09-30T10:58:21;1.40;;;1.30;;
67816;SDS011;54614;47.576;7.524;2022-09-30T11:01:23;3.03;;;1.60;;
67816;SDS011;54614;47.576;7.524;2022-09-30T11:04:08;1.97;;;1.37;;
67816;SDS011;54614;47.576;7.524;2022-09-30T11:07:13;1.30;;;1.30;;
67816;SDS011;54614;47.576;7.524;2022-09-30T11:12:48;1.37;;;1.30;;
67816;SDS011;54614;47.576;7.524;2022-09-30T11:15:41;3.40;;;1.50;;
67816;SDS011;54614;47.576;7.524;2022-09-30T11:18:37;1.50;;;1.40;;
67816;SDS011;54614;47.576;7.524;2022-09-30T11:21:12;1.33;;;1.30;;
67816;SDS011;54614;47.576;7.524;2022-09-30T11:26:56;1.33;;;1.30;;
67816;SDS011;54614;47.576;7.524;2022-09-30T11:30:09;1.40;;;1.30;;
67816;SDS011;54614;47.576;7.524;2022-09-30T11:32:44;1.50;;;1.40;;
67816;SDS011;54614;47.576;7.524;2022-09-30T11:35:52;1.63;;;1.27;;
67816;SDS011;54614;47.576;7.524;2022-09-30T11:39:02;1.43;;;1.33;;
67816;SDS011;54614;47.576;7.524;2022-09-30T11:44:47;1.20;;;1.20;;
67816;SDS011;54614;47.576;7.524;2022-09-30T11:50:51;1.40;;;1.30;;
67816;SDS011;54614;47.576;7.524;2022-09-30T11:53:50;1.37;;;1.27;;
67816;SDS011;54614;47.576;7.524;2022-09-30T11:56:40;1.47;;;1.30;;
67816;SDS011;54614;47.576;7.524;2022-09-30T11:59:46;1.50;;;1.40;;
67816;SDS011;54614;47.576;7.524;2022-09-30T12:05:02;1.40;;;1.30;;
67816;SDS011;54614;47.576;7.524;2022-09-30T12:12:56;1.20;;;1.20;;
67816;SDS011;54614;47.576;7.524;2022-09-30T12:15:36;1.45;;;1.35;;
67816;SDS011;54614;47.576;7.524;2022-09-30T12:18:13;1.20;;;1.20;;
67816;SDS011;54614;47.576;7.524;2022-09-30T12:21:00;1.40;;;1.30;;
67816;SDS011;54614;47.576;7.524;2022-09-30T12:23:53;1.40;;;1.30;;
67816;SDS011;54614;47.576;7.524;2022-09-30T12:26:29;1.20;;;1.20;;
67816;SDS011;54614;47.576;7.524;2022-09-30T12:29:06;1.40;;;1.30;;
67816;SDS011;54614;47.576;7.524;2022-09-30T12:49:31;1.37;;;1.27;;
67816;SDS011;54614;47.576;7.524;2022-09-30T12:52:05;1.23;;;1.23;;
67816;SDS011;54614;47.576;7.524;2022-09-30T12:54:39;1.20;;;1.20;;
67816;SDS011;54614;47.576;7.524;2022-09-30T12:57:30;1.33;;;1.30;;
67816;SDS011;54614;47.576;7.524;2022-09-30T13:00:14;1.20;;;1.20;;
67816;SDS011;54614;47.576;7.524;2022-09-30T13:02:56;1.10;;;1.10;;
67816;SDS011;54614;47.576;7.524;2022-09-30T13:21:15;1.50;;;1.30;;
67816;SDS011;54614;47.576;7.524;2022-09-30T13:23:48;1.30;;;1.30;;
67816;SDS011;54614;47.576;7.524;2022-09-30T13:28:51;1.23;;;1.23;;
67816;SDS011;54614;47.576;7.524;2022-09-30T13:31:24;1.25;;;1.25;;
67816;SDS011;54614;47.576;7.524;2022-09-30T13:42:20;1.10;;;1.10;;
67816;SDS011;54614;47.576;7.524;2022-09-30T13:47:47;1.43;;;1.33;;
67816;SDS011;54614;47.576;7.524;2022-09-30T13:56:19;1.20;;;1.20;;
67816;SDS011;54614;47.576;7.524;2022-09-30T14:13:26;1.93;;;1.20;;
67816;SDS011;54614;47.576;7.524;2022-09-30T14:16:07;8.50;;;1.80;;
67816;SDS011;54614;47.576;7.524;2022-09-30T14:21:53;7.53;;;1.50;;
67816;SDS011;54614;47.576;7.524;2022-09-30T14:24:30;5.67;;;1.60;;
67816;SDS011;54614;47.576;7.524;2022-09-30T14:30:04;4.25;;;1.40;;
67816;SDS011;54614;47.576;7.524;2022-09-30T14:32:40;3.80;;;1.40;;
67816;SDS011;54614;47.576;7.524;2022-09-30T14:35:19;1.67;;;1.37;;
67816;SDS011;54614;47.576;7.524;2022-09-30T14:40:29;1.50;;;1.20;;
67816;SDS011;54614;47.576;7.524;2022-09-30T14:42:58;3.00;;;1.50;;
67816;SDS011;54614;47.576;7.524;2022-09-30T14:45:31;3.40;;;1.43;;
67816;SDS011;54614;47.576;7.524;2022-09-30T14:48:09;4.87;;;1.60;;
67816;SDS011;54614;47.576;7.524;2022-09-30T14:50:50;4.10;;;1.40;;
67816;SDS011;54614;47.576;7.524;2022-09-30T14:53:34;1.20;;;1.10;;
67816;SDS011;54614;47.576;7.524;2022-09-30T14:58:59;7.78;;;1.52;;
67816;SDS011;54614;47.576;7.524;2022-09-30T15:01:40;4.72;;;1.20;;
67816;SDS011;54614;47.576;7.524;2022-09-30T15:04:09;3.93;;;1.50;;
67816;SDS011;54614;47.576;7.524;2022-09-30T15:06:44;5.80;;;1.55;;
67816;SDS011;54614;47.576;7.524;2022-09-30T15:14:49;4.97;;;1.60;;
67816;SDS011;54614;47.576;7.524;2022-09-30T15:17:21;3.57;;;1.50;;
67816;SDS011;54614;47.576;7.524;2022-09-30T15:20:00;7.28;;;1.52;;
67816;SDS011;54614;47.576;7.524;2022-09-30T15:22:47;7.30;;;1.53;;
67816;SDS011;54614;47.576;7.524;2022-09-30T15:25:15;3.92;;;1.40;;
67816;SDS011;54614;47.576;7.524;2022-09-30T15:27:42;13.63;;;1.57;;
67816;SDS011;54614;47.576;7.524;2022-09-30T15:32:42;3.20;;;1.35;;
67816;SDS011;54614;47.576;7.524;2022-09-30T15:35:13;5.80;;;1.67;;
67816;SDS011;54614;47.576;7.524;2022-09-30T15:37:44;2.80;;;1.40;;
67816;SDS011;54614;47.576;7.524;2022-09-30T15:40:11;5.70;;;1.65;;
67816;SDS011;54614;47.576;7.524;2022-09-30T15:43:00;4.53;;;1.30;;
67816;SDS011;54614;47.576;7.524;2022-09-30T15:45:33;5.50;;;1.70;;
67816;SDS011;54614;47.576;7.524;2022-09-30T15:50:50;7.00;;;1.75;;
67816;SDS011;54614;47.576;7.524;2022-09-30T15:53:25;5.18;;;1.60;;
67816;SDS011;54614;47.576;7.524;2022-09-30T15:56:34;4.47;;;1.48;;
67816;SDS011;54614;47.576;7.524;2022-09-30T15:59:04;7.00;;;1.63;;
67816;SDS011;54614;47.576;7.524;2022-09-30T16:01:39;3.93;;;1.60;;
67816;SDS011;54614;47.576;7.524;2022-09-30T16:04:42;7.10;;;1.30;;
67816;SDS011;54614;47.576;7.524;2022-09-30T16:07:16;5.15;;;1.70;;
67816;SDS011;54614;47.576;7.524;2022-09-30T16:09:45;4.53;;;1.50;;
67816;SDS011;54614;47.576;7.524;2022-09-30T16:14:45;6.67;;;1.47;;
67816;SDS011;54614;47.576;7.524;2022-09-30T16:19:59;4.53;;;1.60;;
67816;SDS011;54614;47.576;7.524;2022-09-30T16:25:20;5.30;;;1.50;;
67816;SDS011;54614;47.576;7.524;2022-09-30T16:30:46;3.87;;;1.50;;
67816;SDS011;54614;47.576;7.524;2022-09-30T16:33:15;6.00;;;1.43;;
67816;SDS011;54614;47.576;7.524;2022-09-30T16:35:42;8.87;;;1.50;;
67816;SDS011;54614;47.576;7.524;2022-09-30T16:38:12;7.57;;;1.60;;
67816;SDS011;54614;47.576;7.524;2022-09-30T16:40:40;4.83;;;1.50;;
67816;SDS011;54614;47.576;7.524;2022-09-30T16:43:06;5.47;;;1.50;;
67816;SDS011;54614;47.576;7.524;2022-09-30T16:45:35;2.23;;;1.50;;
67816;SDS011;54614;47.576;7.524;2022-09-30T16:48:04;7.47;;;1.63;;
67816;SDS011;54614;47.576;7.524;2022-09-30T16:50:43;5.77;;;2.00;;
67816;SDS011;54614;47.576;7.524;2022-09-30T16:53:24;5.10;;;1.40;;
67816;SDS011;54614;47.576;7.524;2022-09-30T16:55:50;7.03;;;1.53;;
67816;SDS011;54614;47.576;7.524;2022-09-30T16:58:16;1.83;;;1.40;;
67816;SDS011;54614;47.576;7.524;2022-09-30T17:00:43;7.10;;;1.40;;
67816;SDS011;54614;47.576;7.524;2022-09-30T17:03:13;2.63;;;1.30;;
67816;SDS011;54614;47.576;7.524;2022-09-30T17:05:42;4.15;;;1.30;;
67816;SDS011;54614;47.576;7.524;2022-09-30T17:08:11;2.73;;;1.30;;
67816;SDS011;54614;47.576;7.524;2022-09-30T17:10:40;2.70;;;1.60;;
67816;SDS011;54614;47.576;7.524;2022-09-30T17:13:10;1.73;;;1.50;;
67816;SDS011;54614;47.576;7.524;2022-09-30T17:15:36;5.17;;;1.50;;
67816;SDS011;54614;47.576;7.524;2022-09-30T17:18:05;1.83;;;1.37;;
67816;SDS011;54614;47.576;7.524;2022-09-30T17:20:34;1.50;;;1.40;;
67816;SDS011;54614;47.576;7.524;2022-09-30T17:23:01;2.23;;;1.40;;
67816;SDS011;54614;47.576;7.524;2022-09-30T17:25:28;2.23;;;1.50;;
67816;SDS011;54614;47.576;7.524;2022-09-30T17:27:54;2.63;;;1.40;;
67816;SDS011;54614;47.576;7.524;2022-09-30T17:30:21;1.90;;;1.35;;
67816;SDS011;54614;47.576;7.524;2022-09-30T17:32:47;4.73;;;1.60;;
67816;SDS011;54614;47.576;7.524;2022-09-30T17:35:13;3.23;;;1.57;;
67816;SDS011;54614;47.576;7.524;2022-09-30T17:37:40;2.33;;;1.48;;
67816;SDS011;54614;47.576;7.524;2022-09-30T17:40:06;3.63;;;1.67;;
67816;SDS011;54614;47.576;7.524;2022-09-30T17:42:52;2.73;;;1.43;;
67816;SDS011;54614;47.576;7.524;2022-09-30T17:45:40;3.33;;;1.67;;
67816;SDS011;54614;47.576;7.524;2022-09-30T17:48:10;4.80;;;1.57;;
67816;SDS011;54614;47.576;7.524;2022-09-30T17:50:39;2.03;;;1.53;;
67816;SDS011;54614;47.576;7.524;2022-09-30T17:53:10;2.53;;;1.80;;
67816;SDS011;54614;47.576;7.524;2022-09-30T17:55:38;3.47;;;1.80;;
67816;SDS011;54614;47.576;7.524;2022-09-30T17:58:06;2.23;;;1.60;;
67816;SDS011;54614;47.576;7.524;2022-09-30T18:00:33;4.63;;;2.17;;
67816;SDS011;54614;47.576;7.524;2022-09-30T18:03:00;2.93;;;1.70;;
67816;SDS011;54614;47.576;7.524;2022-09-30T18:05:27;3.17;;;1.70;;
67816;SDS011;54614;47.576;7.524;2022-09-30T18:07:54;2.17;;;1.63;;
67816;SDS011;54614;47.576;7.524;2022-09-30T18:10:21;1.77;;;1.67;;
67816;SDS011;54614;47.576;7.524;2022-09-30T18:12:48;2.03;;;1.65;;
67816;SDS011;54614;47.576;7.524;2022-09-30T18:15:16;3.40;;;1.80;;
67816;SDS011;54614;47.576;7.524;2022-09-30T18:17:43;9.13;;;1.92;;
67816;SDS011;54614;47.576;7.524;2022-09-30T18:20:09;4.80;;;1.70;;
67816;SDS011;54614;47.576;7.524;2022-09-30T18:22:36;6.10;;;1.70;;
67816;SDS011;54614;47.576;7.524;2022-09-30T18:25:03;2.38;;;1.60;;
67816;SDS011;54614;47.576;7.524;2022-09-30T18:27:52;3.53;;;1.70;;
67816;SDS011;54614;47.576;7.524;2022-09-30T18:30:22;2.10;;;1.63;;
67816;SDS011;54614;47.576;7.524;2022-09-30T18:32:50;3.10;;;1.80;;
67816;SDS011;54614;47.576;7.524;2022-09-30T18:35:18;6.23;;;2.20;;
67816;SDS011;54614;47.576;7.524;2022-09-30T18:37:48;6.30;;;1.73;;
67816;SDS011;54614;47.576;7.524;2022-09-30T18:40:16;5.17;;;2.00;;
67816;SDS011;54614;47.576;7.524;2022-09-30T18:42:51;3.50;;;1.70;;
67816;SDS011;54614;47.576;7.524;2022-09-30T18:45:26;7.83;;;1.97;;
67816;SDS011;54614;47.576;7.524;2022-09-30T18:47:55;4.80;;;1.90;;
67816;SDS011;54614;47.576;7.524;2022-09-30T18:50:24;4.70;;;1.80;;
67816;SDS011;54614;47.576;7.524;2022-09-30T18:52:52;8.10;;;2.13;;
67816;SDS011;54614;47.576;7.524;2022-09-30T18:55:20;15.97;;;2.20;;
67816;SDS011;54614;47.576;7.524;2022-09-30T18:57:47;12.00;;;2.93;;
67816;SDS011;54614;47.576;7.524;2022-09-30T19:00:14;23.90;;;3.03;;
67816;SDS011;54614;47.576;7.524;2022-09-30T19:02:41;26.83;;;3.23;;
67816;SDS011;54614;47.576;7.524;2022-09-30T19:05:09;13.83;;;3.00;;
67816;SDS011;54614;47.576;7.524;2022-09-30T19:07:37;19.65;;;3.53;;
67816;SDS011;54614;47.576;7.524;2022-09-30T19:10:06;22.93;;;3.07;;
67816;SDS011;54614;47.576;7.524;2022-09-30T19:12:34;19.43;;;3.33;;
67816;SDS011;54614;47.576;7.524;2022-09-30T19:15:06;27.60;;;3.57;;
67816;SDS011;54614;47.576;7.524;2022-09-30T19:17:36;13.17;;;2.93;;
67816;SDS011;54614;47.576;7.524;2022-09-30T19:20:03;18.00;;;3.10;;
67816;SDS011;54614;47.576;7.524;2022-09-30T19:22:31;19.67;;;2.87;;